This is the latest recevied weather packets stored in our database for station/object OK1TBF-14. If no packets are shown the sender has not sent any weather packets the latest 10 day(s).
| Time | Temp. | Humidity | Pressure | Rain* | Wind** | Luminosity | Snow |
|---|---|---|---|---|---|---|---|
| 1777217405 | 12.78° C | 36% | 1021.3 hPa | 0 mm | - | 349 W/m² | - |
| 1777216805 | 12.78° C | 37% | 1021.3 hPa | 0 mm | - | 372 W/m² | - |
| 1777216204 | 12.22° C | 37% | 1021.3 hPa | 0 mm | - | 306 W/m² | - |
| 1777209004 | 12.22° C | 39% | 1021.3 hPa | 0 mm | - | 721 W/m² | - |
| 1777204825 | 11.67° C | 41% | 1021.3 hPa | 0 mm | - | 931 W/m² | - |
| 1777203604 | 10.56° C | 41% | 1021.3 hPa | 0 mm | - | 265 W/m² | - |
| 1777199404 | 10° C | 46% | 1021.3 hPa | 0 mm | - | 990 W/m² | - |
| 1777193404 | 10° C | 45% | 1021.3 hPa | 0 mm | - | 753 W/m² | - |
| 1777190404 | 7.22° C | 56% | 1021.3 hPa | 0 mm | - | 262 W/m² | - |
| 1777185003 | 6.11° C | 62% | 1020.1 hPa | 0 mm | - | 381 W/m² | - |
| 1777183204 | 5° C | 65% | 1019.8 hPa | 0 mm | - | 220 W/m² | - |
| 1777179604 | 3.89° C | 65% | 1018.9 hPa | 0 mm | - | 48 W/m² | - |
| 1777174203 | 4.44° C | 60% | 1016.5 hPa | 0 mm | - | 0 W/m² | - |
| 1777161603 | 10° C | 55% | 1012.9 hPa | 0 mm | - | 0 W/m² | - |
| 1777149003 | 12.22° C | 39% | 1011.9 hPa | 0 mm | - | 0 W/m² | - |
| 1777145403 | 13.89° C | 35% | 1012.4 hPa | 0 mm | - | 0 W/m² | - |
| 1777131003 | 18.33° C | 32% | 1012 hPa | 0 mm | - | 325 W/m² | - |
| 1777107603 | 12.78° C | 64% | 1014.3 hPa | 0 mm | - | 728 W/m² | - |
| 1777105803 | 12.22° C | 68% | 1014.3 hPa | 0 mm | - | 832 W/m² | - |
| 1777102204 | 10.56° C | 73% | 1014.4 hPa | 0 mm | - | 484 W/m² | - |
| 1777098603 | 8.33° C | 78% | 1015 hPa | 0 mm | - | 318 W/m² | - |
| 1777089624 | 5° C | 81% | 1014.6 hPa | 0 mm | - | 6 W/m² | - |
| 1777082403 | 3.89° C | 79% | 1015.3 hPa | 0 mm | - | 0 W/m² | - |
| 1777077003 | 4.44° C | 82% | 1015.6 hPa | 0 mm | - | 0 W/m² | - |
| 1777055403 | 10.56° C | 60% | 1015.1 hPa | 0 mm | - | 0 W/m² | - |
* Rain latest hour (hover to see other rain measurements)
** Current wind speed in m/s (hover to see current wind gust speed)